sensor_id;sensor_type;location;lat;lon;timestamp;pressure;altitude;pressure_sealevel;temperature;humidity
38812;BME280;24553;51.640;-0.752;2022-11-28T00:00:57;100201.38;;;4.13;100.00
38812;BME280;24553;51.640;-0.752;2022-11-28T00:03:22;100193.75;;;4.02;100.00
38812;BME280;24553;51.640;-0.752;2022-11-28T00:05:49;100185.25;;;4.00;100.00
38812;BME280;24553;51.640;-0.752;2022-11-28T00:08:14;100180.94;;;3.99;100.00
38812;BME280;24553;51.640;-0.752;2022-11-28T00:10:40;100180.28;;;3.97;100.00
38812;BME280;24553;51.640;-0.752;2022-11-28T00:13:06;100186.41;;;3.80;100.00
38812;BME280;24553;51.640;-0.752;2022-11-28T00:15:31;100175.22;;;3.69;100.00
38812;BME280;24553;51.640;-0.752;2022-11-28T00:17:57;100181.88;;;3.64;100.00
38812;BME280;24553;51.640;-0.752;2022-11-28T00:20:22;100180.69;;;3.58;100.00
38812;BME280;24553;51.640;-0.752;2022-11-28T00:22:48;100186.59;;;3.60;100.00
38812;BME280;24553;51.640;-0.752;2022-11-28T00:25:13;100179.25;;;3.64;100.00
38812;BME280;24553;51.640;-0.752;2022-11-28T00:27:38;100181.59;;;3.67;100.00
38812;BME280;24553;51.640;-0.752;2022-11-28T00:30:04;100177.28;;;3.66;100.00
38812;BME280;24553;51.640;-0.752;2022-11-28T00:32:30;100183.66;;;3.63;100.00
38812;BME280;24553;51.640;-0.752;2022-11-28T00:34:55;100182.41;;;3.67;100.00
38812;BME280;24553;51.640;-0.752;2022-11-28T00:37:21;100179.78;;;3.67;100.00
38812;BME280;24553;51.640;-0.752;2022-11-28T00:39:46;100175.50;;;3.66;100.00
38812;BME280;24553;51.640;-0.752;2022-11-28T00:42:12;100171.38;;;3.64;100.00
38812;BME280;24553;51.640;-0.752;2022-11-28T00:44:37;100169.59;;;3.64;100.00
38812;BME280;24553;51.640;-0.752;2022-11-28T00:47:02;100168.16;;;3.70;100.00
38812;BME280;24553;51.640;-0.752;2022-11-28T00:49:28;100161.97;;;3.79;100.00
38812;BME280;24553;51.640;-0.752;2022-11-28T00:51:53;100172.53;;;3.87;100.00
38812;BME280;24553;51.640;-0.752;2022-11-28T00:54:18;100172.06;;;3.92;100.00
38812;BME280;24553;51.640;-0.752;2022-11-28T00:56:44;100176.47;;;3.91;100.00
38812;BME280;24553;51.640;-0.752;2022-11-28T00:59:09;100174.06;;;3.98;100.00
38812;BME280;24553;51.640;-0.752;2022-11-28T01:01:38;100186.38;;;3.98;100.00
38812;BME280;24553;51.640;-0.752;2022-11-28T01:04:07;100178.28;;;3.91;100.00
38812;BME280;24553;51.640;-0.752;2022-11-28T01:06:45;100175.66;;;3.91;100.00
38812;BME280;24553;51.640;-0.752;2022-11-28T01:09:17;100166.53;;;3.95;100.00
38812;BME280;24553;51.640;-0.752;2022-11-28T01:11:43;100164.84;;;3.94;100.00
38812;BME280;24553;51.640;-0.752;2022-11-28T01:14:10;100167.66;;;3.92;100.00
38812;BME280;24553;51.640;-0.752;2022-11-28T01:16:36;100168.16;;;3.96;100.00
38812;BME280;24553;51.640;-0.752;2022-11-28T01:19:02;100177.19;;;4.02;100.00
38812;BME280;24553;51.640;-0.752;2022-11-28T01:21:27;100178.72;;;4.12;100.00
38812;BME280;24553;51.640;-0.752;2022-11-28T01:23:53;100177.13;;;4.20;100.00
38812;BME280;24553;51.640;-0.752;2022-11-28T01:26:21;100171.75;;;4.29;100.00
38812;BME280;24553;51.640;-0.752;2022-11-28T01:28:47;100175.69;;;4.33;100.00
38812;BME280;24553;51.640;-0.752;2022-11-28T01:31:15;100172.47;;;4.40;100.00
38812;BME280;24553;51.640;-0.752;2022-11-28T01:33:41;100168.69;;;4.42;100.00
38812;BME280;24553;51.640;-0.752;2022-11-28T01:36:08;100161.50;;;4.44;100.00
38812;BME280;24553;51.640;-0.752;2022-11-28T01:38:34;100169.72;;;4.49;100.00
38812;BME280;24553;51.640;-0.752;2022-11-28T01:41:00;100168.25;;;4.55;100.00
38812;BME280;24553;51.640;-0.752;2022-11-28T01:43:25;100160.38;;;4.63;100.00
38812;BME280;24553;51.640;-0.752;2022-11-28T01:45:51;100157.28;;;4.68;100.00
38812;BME280;24553;51.640;-0.752;2022-11-28T01:48:27;100153.34;;;4.72;100.00
38812;BME280;24553;51.640;-0.752;2022-11-28T01:50:59;100149.41;;;4.76;100.00
38812;BME280;24553;51.640;-0.752;2022-11-28T01:53:27;100156.50;;;4.84;100.00
38812;BME280;24553;51.640;-0.752;2022-11-28T01:56:01;100152.25;;;4.91;100.00
38812;BME280;24553;51.640;-0.752;2022-11-28T01:58:28;100152.38;;;4.89;100.00
38812;BME280;24553;51.640;-0.752;2022-11-28T02:00:54;100155.50;;;4.93;100.00
38812;BME280;24553;51.640;-0.752;2022-11-28T02:03:25;100159.31;;;4.98;100.00
38812;BME280;24553;51.640;-0.752;2022-11-28T02:05:51;100157.31;;;5.00;100.00
38812;BME280;24553;51.640;-0.752;2022-11-28T02:08:17;100163.91;;;5.05;100.00
38812;BME280;24553;51.640;-0.752;2022-11-28T02:13:40;100153.56;;;5.03;100.00
38812;BME280;24553;51.640;-0.752;2022-11-28T02:19:00;100157.50;;;5.07;100.00
38812;BME280;24553;51.640;-0.752;2022-11-28T02:34:53;100152.41;;;4.97;100.00
38812;BME280;24553;51.640;-0.752;2022-11-28T02:43:21;100155.88;;;5.06;100.00
38812;BME280;24553;51.640;-0.752;2022-11-28T02:45:58;100155.22;;;5.12;100.00
38812;BME280;24553;51.640;-0.752;2022-11-28T02:48:44;100153.41;;;5.21;100.00
38812;BME280;24553;51.640;-0.752;2022-11-28T02:51:17;100152.75;;;5.19;100.00
38812;BME280;24553;51.640;-0.752;2022-11-28T02:53:47;100153.72;;;5.26;100.00
38812;BME280;24553;51.640;-0.752;2022-11-28T02:56:13;100152.56;;;5.37;100.00
38812;BME280;24553;51.640;-0.752;2022-11-28T02:58:39;100159.31;;;5.47;100.00
38812;BME280;24553;51.640;-0.752;2022-11-28T03:01:08;100164.41;;;5.65;100.00
38812;BME280;24553;51.640;-0.752;2022-11-28T03:11:53;100167.78;;;5.90;100.00
38812;BME280;24553;51.640;-0.752;2022-11-28T03:17:10;100172.41;;;5.88;100.00
38812;BME280;24553;51.640;-0.752;2022-11-28T03:19:45;100171.59;;;5.96;100.00
38812;BME280;24553;51.640;-0.752;2022-11-28T03:24:48;100180.97;;;6.07;100.00
38812;BME280;24553;51.640;-0.752;2022-11-28T03:27:24;100184.06;;;6.10;100.00
38812;BME280;24553;51.640;-0.752;2022-11-28T03:29:54;100175.00;;;6.13;100.00
38812;BME280;24553;51.640;-0.752;2022-11-28T03:32:28;100178.78;;;6.10;100.00
38812;BME280;24553;51.640;-0.752;2022-11-28T03:35:01;100186.19;;;6.15;100.00
38812;BME280;24553;51.640;-0.752;2022-11-28T03:37:32;100177.59;;;6.21;100.00
38812;BME280;24553;51.640;-0.752;2022-11-28T03:40:02;100183.53;;;6.23;100.00
38812;BME280;24553;51.640;-0.752;2022-11-28T03:42:34;100180.09;;;6.23;100.00
38812;BME280;24553;51.640;-0.752;2022-11-28T03:45:25;100184.69;;;6.21;100.00
38812;BME280;24553;51.640;-0.752;2022-11-28T03:47:57;100183.06;;;6.20;100.00
38812;BME280;24553;51.640;-0.752;2022-11-28T03:50:46;100186.50;;;6.20;100.00
38812;BME280;24553;51.640;-0.752;2022-11-28T03:53:17;100190.63;;;6.23;100.00
38812;BME280;24553;51.640;-0.752;2022-11-28T03:55:51;100185.16;;;6.24;100.00
38812;BME280;24553;51.640;-0.752;2022-11-28T03:58:29;100186.78;;;6.33;100.00
38812;BME280;24553;51.640;-0.752;2022-11-28T04:01:03;100191.59;;;6.30;100.00
38812;BME280;24553;51.640;-0.752;2022-11-28T04:03:44;100185.78;;;6.34;100.00
38812;BME280;24553;51.640;-0.752;2022-11-28T04:06:19;100176.91;;;6.36;100.00
38812;BME280;24553;51.640;-0.752;2022-11-28T04:08:59;100173.94;;;6.39;100.00
38812;BME280;24553;51.640;-0.752;2022-11-28T04:11:31;100171.94;;;6.41;100.00
38812;BME280;24553;51.640;-0.752;2022-11-28T04:14:04;100168.66;;;6.39;100.00
38812;BME280;24553;51.640;-0.752;2022-11-28T04:16:45;100160.59;;;6.40;100.00
38812;BME280;24553;51.640;-0.752;2022-11-28T04:22:12;100162.28;;;6.33;100.00
38812;BME280;24553;51.640;-0.752;2022-11-28T04:24:44;100161.16;;;6.27;100.00
38812;BME280;24553;51.640;-0.752;2022-11-28T04:27:16;100164.75;;;6.26;100.00
38812;BME280;24553;51.640;-0.752;2022-11-28T04:29:47;100172.50;;;6.28;100.00
38812;BME280;24553;51.640;-0.752;2022-11-28T04:32:14;100161.81;;;6.21;100.00
38812;BME280;24553;51.640;-0.752;2022-11-28T04:34:46;100179.28;;;6.22;100.00
38812;BME280;24553;51.640;-0.752;2022-11-28T04:37:14;100174.00;;;6.22;100.00
38812;BME280;24553;51.640;-0.752;2022-11-28T04:39:44;100170.88;;;6.19;100.00
38812;BME280;24553;51.640;-0.752;2022-11-28T04:42:34;100173.16;;;6.22;100.00
38812;BME280;24553;51.640;-0.752;2022-11-28T04:45:02;100169.41;;;6.16;100.00
38812;BME280;24553;51.640;-0.752;2022-11-28T04:47:32;100169.75;;;6.13;100.00
38812;BME280;24553;51.640;-0.752;2022-11-28T04:49:58;100164.81;;;6.10;100.00
38812;BME280;24553;51.640;-0.752;2022-11-28T04:52:30;100168.44;;;6.09;100.00
38812;BME280;24553;51.640;-0.752;2022-11-28T04:55:01;100171.41;;;6.06;100.00
38812;BME280;24553;51.640;-0.752;2022-11-28T04:59:57;100172.41;;;6.05;100.00
38812;BME280;24553;51.640;-0.752;2022-11-28T05:02:25;100170.94;;;6.02;100.00
38812;BME280;24553;51.640;-0.752;2022-11-28T05:04:51;100169.47;;;6.00;100.00
38812;BME280;24553;51.640;-0.752;2022-11-28T05:07:20;100179.97;;;6.00;100.00
38812;BME280;24553;51.640;-0.752;2022-11-28T05:09:45;100169.28;;;6.01;100.00
38812;BME280;24553;51.640;-0.752;2022-11-28T05:12:11;100169.28;;;6.01;100.00
38812;BME280;24553;51.640;-0.752;2022-11-28T05:14:36;100178.63;;;6.04;100.00
38812;BME280;24553;51.640;-0.752;2022-11-28T05:17:01;100177.66;;;6.05;100.00
38812;BME280;24553;51.640;-0.752;2022-11-28T05:19:27;100168.09;;;6.04;100.00
38812;BME280;24553;51.640;-0.752;2022-11-28T05:21:52;100168.09;;;6.04;100.00
38812;BME280;24553;51.640;-0.752;2022-11-28T05:24:18;100176.84;;;6.04;100.00
38812;BME280;24553;51.640;-0.752;2022-11-28T05:26:43;100172.06;;;6.08;100.00
38812;BME280;24553;51.640;-0.752;2022-11-28T05:29:08;100176.00;;;6.04;100.00
38812;BME280;24553;51.640;-0.752;2022-11-28T05:31:34;100176.34;;;6.01;100.00
38812;BME280;24553;51.640;-0.752;2022-11-28T05:33:59;100178.31;;;5.99;100.00
38812;BME280;24553;51.640;-0.752;2022-11-28T05:36:24;100180.31;;;5.97;100.00
38812;BME280;24553;51.640;-0.752;2022-11-28T05:38:50;100179.47;;;5.96;100.00
38812;BME280;24553;51.640;-0.752;2022-11-28T05:43:44;100179.66;;;5.95;100.00
38812;BME280;24553;51.640;-0.752;2022-11-28T05:46:09;100179.78;;;5.93;100.00
38812;BME280;24553;51.640;-0.752;2022-11-28T05:48:34;100176.50;;;5.91;100.00
38812;BME280;24553;51.640;-0.752;2022-11-28T05:51:02;100182.28;;;5.95;100.00
38812;BME280;24553;51.640;-0.752;2022-11-28T05:53:28;100183.13;;;5.95;100.00
38812;BME280;24553;51.640;-0.752;2022-11-28T05:55:53;100181.97;;;5.98;100.00
38812;BME280;24553;51.640;-0.752;2022-11-28T05:58:18;100172.91;;;5.92;100.00
38812;BME280;24553;51.640;-0.752;2022-11-28T06:00:44;100181.47;;;5.94;100.00
38812;BME280;24553;51.640;-0.752;2022-11-28T06:03:09;100173.72;;;5.93;100.00
38812;BME280;24553;51.640;-0.752;2022-11-28T06:05:38;100183.13;;;5.95;100.00
38812;BME280;24553;51.640;-0.752;2022-11-28T06:08:04;100191.16;;;5.94;100.00
38812;BME280;24553;51.640;-0.752;2022-11-28T06:10:29;100186.06;;;5.92;100.00
38812;BME280;24553;51.640;-0.752;2022-11-28T06:12:55;100183.41;;;5.92;100.00
38812;BME280;24553;51.640;-0.752;2022-11-28T06:15:20;100182.09;;;5.88;100.00
38812;BME280;24553;51.640;-0.752;2022-11-28T06:17:45;100184.91;;;5.86;100.00
38812;BME280;24553;51.640;-0.752;2022-11-28T06:20:11;100190.66;;;5.90;100.00
38812;BME280;24553;51.640;-0.752;2022-11-28T06:22:36;100184.91;;;5.86;100.00
38812;BME280;24553;51.640;-0.752;2022-11-28T06:25:01;100192.31;;;5.83;100.00
38812;BME280;24553;51.640;-0.752;2022-11-28T06:27:27;100189.19;;;5.79;100.00
38812;BME280;24553;51.640;-0.752;2022-11-28T06:29:53;100184.94;;;5.78;100.00
38812;BME280;24553;51.640;-0.752;2022-11-28T06:32:18;100180.66;;;5.77;100.00
38812;BME280;24553;51.640;-0.752;2022-11-28T06:34:43;100181.31;;;5.71;100.00
38812;BME280;24553;51.640;-0.752;2022-11-28T06:37:09;100183.78;;;5.73;100.00
38812;BME280;24553;51.640;-0.752;2022-11-28T06:39:34;100184.63;;;5.73;100.00
38812;BME280;24553;51.640;-0.752;2022-11-28T06:41:59;100182.00;;;5.73;100.00
38812;BME280;24553;51.640;-0.752;2022-11-28T06:44:25;100188.22;;;5.72;100.00
38812;BME280;24553;51.640;-0.752;2022-11-28T06:46:50;100186.25;;;5.66;100.00
38812;BME280;24553;51.640;-0.752;2022-11-28T06:49:15;100184.78;;;5.63;100.00
38812;BME280;24553;51.640;-0.752;2022-11-28T06:51:41;100190.03;;;5.63;100.00
38812;BME280;24553;51.640;-0.752;2022-11-28T06:54:07;100181.31;;;5.55;100.00
38812;BME280;24553;51.640;-0.752;2022-11-28T06:56:32;100182.66;;;5.42;100.00
38812;BME280;24553;51.640;-0.752;2022-11-28T06:58:58;100182.97;;;5.39;100.00
38812;BME280;24553;51.640;-0.752;2022-11-28T07:01:26;100180.84;;;5.35;100.00
38812;BME280;24553;51.640;-0.752;2022-11-28T07:03:51;100183.63;;;5.25;100.00
38812;BME280;24553;51.640;-0.752;2022-11-28T07:06:19;100187.91;;;5.18;100.00
38812;BME280;24553;51.640;-0.752;2022-11-28T07:08:46;100192.81;;;5.05;100.00
38812;BME280;24553;51.640;-0.752;2022-11-28T07:11:23;100189.16;;;4.89;100.00
38812;BME280;24553;51.640;-0.752;2022-11-28T07:13:49;100192.94;;;4.78;100.00
38812;BME280;24553;51.640;-0.752;2022-11-28T07:16:24;100191.78;;;4.81;100.00
38812;BME280;24553;51.640;-0.752;2022-11-28T07:18:50;100205.09;;;4.88;100.00
38812;BME280;24553;51.640;-0.752;2022-11-28T07:21:16;100203.44;;;4.87;100.00
38812;BME280;24553;51.640;-0.752;2022-11-28T07:23:42;100192.63;;;4.90;100.00
38812;BME280;24553;51.640;-0.752;2022-11-28T07:26:09;100190.50;;;4.93;100.00
38812;BME280;24553;51.640;-0.752;2022-11-28T07:28:35;100197.06;;;4.89;100.00
38812;BME280;24553;51.640;-0.752;2022-11-28T07:31:09;100198.19;;;4.87;100.00
38812;BME280;24553;51.640;-0.752;2022-11-28T07:33:38;100196.25;;;4.89;100.00
38812;BME280;24553;51.640;-0.752;2022-11-28T07:36:26;100203.78;;;4.92;100.00
38812;BME280;24553;51.640;-0.752;2022-11-28T07:38:53;100202.31;;;4.89;100.00
38812;BME280;24553;51.640;-0.752;2022-11-28T07:41:19;100197.19;;;4.88;100.00
38812;BME280;24553;51.640;-0.752;2022-11-28T07:43:46;100198.19;;;4.87;100.00
38812;BME280;24553;51.640;-0.752;2022-11-28T07:46:14;100201.16;;;4.84;100.00
38812;BME280;24553;51.640;-0.752;2022-11-28T07:48:40;100202.63;;;4.86;100.00
38812;BME280;24553;51.640;-0.752;2022-11-28T07:51:17;100199.34;;;4.84;100.00
38812;BME280;24553;51.640;-0.752;2022-11-28T07:53:43;100204.94;;;4.89;100.00
38812;BME280;24553;51.640;-0.752;2022-11-28T07:56:11;100204.47;;;4.94;100.00
38812;BME280;24553;51.640;-0.752;2022-11-28T07:58:39;100202.78;;;4.85;100.00
38812;BME280;24553;51.640;-0.752;2022-11-28T08:01:17;100200.34;;;4.83;100.00
38812;BME280;24553;51.640;-0.752;2022-11-28T08:03:43;100204.09;;;4.80;100.00
38812;BME280;24553;51.640;-0.752;2022-11-28T08:06:10;100210.66;;;4.85;100.00
38812;BME280;24553;51.640;-0.752;2022-11-28T08:08:35;100210.53;;;4.94;100.00
38812;BME280;24553;51.640;-0.752;2022-11-28T08:11:03;100218.44;;;5.02;100.00
38812;BME280;24553;51.640;-0.752;2022-11-28T08:13:29;100203.78;;;4.92;100.00
38812;BME280;24553;51.640;-0.752;2022-11-28T08:15:54;100211.81;;;4.90;100.00
38812;BME280;24553;51.640;-0.752;2022-11-28T08:18:20;100208.06;;;4.93;100.00
38812;BME280;24553;51.640;-0.752;2022-11-28T08:20:45;100208.72;;;4.87;100.00
38812;BME280;24553;51.640;-0.752;2022-11-28T08:23:11;100205.94;;;4.88;100.00
38812;BME280;24553;51.640;-0.752;2022-11-28T08:25:36;100199.00;;;4.87;100.00
38812;BME280;24553;51.640;-0.752;2022-11-28T08:28:02;100193.09;;;4.85;100.00
38812;BME280;24553;51.640;-0.752;2022-11-28T08:30:27;100191.94;;;4.88;100.00
38812;BME280;24553;51.640;-0.752;2022-11-28T08:32:53;100199.34;;;4.84;100.00
38812;BME280;24553;51.640;-0.752;2022-11-28T08:35:18;100193.44;;;4.90;100.00
38812;BME280;24553;51.640;-0.752;2022-11-28T08:37:44;100194.44;;;4.89;100.00
38812;BME280;24553;51.640;-0.752;2022-11-28T08:40:09;100187.56;;;4.96;100.00
38812;BME280;24553;51.640;-0.752;2022-11-28T08:42:35;100189.38;;;5.04;100.00
38812;BME280;24553;51.640;-0.752;2022-11-28T08:45:00;100188.38;;;5.13;100.00
38812;BME280;24553;51.640;-0.752;2022-11-28T08:47:26;100186.91;;;5.11;100.00
38812;BME280;24553;51.640;-0.752;2022-11-28T08:49:51;100188.56;;;5.12;100.00
38812;BME280;24553;51.640;-0.752;2022-11-28T08:52:17;100184.59;;;5.08;100.00
38812;BME280;24553;51.640;-0.752;2022-11-28T08:54:42;100187.41;;;5.06;100.00
38812;BME280;24553;51.640;-0.752;2022-11-28T08:57:08;100186.09;;;5.10;100.00
38812;BME280;24553;51.640;-0.752;2022-11-28T08:59:33;100184.78;;;5.14;100.00
38812;BME280;24553;51.640;-0.752;2022-11-28T09:01:59;100190.19;;;5.21;100.00
38812;BME280;24553;51.640;-0.752;2022-11-28T09:04:24;100194.50;;;5.30;100.00
38812;BME280;24553;51.640;-0.752;2022-11-28T09:06:50;100200.22;;;5.42;100.00
38812;BME280;24553;51.640;-0.752;2022-11-28T09:09:15;100201.06;;;5.51;100.00
38812;BME280;24553;51.640;-0.752;2022-11-28T09:11:41;100196.13;;;5.56;100.00
38812;BME280;24553;51.640;-0.752;2022-11-28T09:14:07;100195.13;;;5.65;100.00
38812;BME280;24553;51.640;-0.752;2022-11-28T09:16:32;100201.03;;;5.67;100.00
38812;BME280;24553;51.640;-0.752;2022-11-28T09:18:58;100199.91;;;5.69;100.00
38812;BME280;24553;51.640;-0.752;2022-11-28T09:21:24;100197.09;;;5.71;100.00
38812;BME280;24553;51.640;-0.752;2022-11-28T09:23:50;100187.72;;;5.77;100.00
38812;BME280;24553;51.640;-0.752;2022-11-28T09:26:19;100191.03;;;5.79;100.00
38812;BME280;24553;51.640;-0.752;2022-11-28T09:28:46;100189.19;;;5.79;100.00
38812;BME280;24553;51.640;-0.752;2022-11-28T09:31:13;100180.16;;;5.74;100.00
38812;BME280;24553;51.640;-0.752;2022-11-28T09:33:39;100179.66;;;5.70;100.00
38812;BME280;24553;51.640;-0.752;2022-11-28T09:36:12;100178.50;;;5.73;100.00
38812;BME280;24553;51.640;-0.752;2022-11-28T09:38:38;100180.19;;;5.65;100.00
38812;BME280;24553;51.640;-0.752;2022-11-28T09:43:43;100182.59;;;5.83;100.00
38812;BME280;24553;51.640;-0.752;2022-11-28T09:46:14;100184.44;;;5.99;100.00
38812;BME280;24553;51.640;-0.752;2022-11-28T09:48:45;100183.19;;;6.26;100.00
38812;BME280;24553;51.640;-0.752;2022-11-28T09:51:27;100193.03;;;6.41;100.00
38812;BME280;24553;51.640;-0.752;2022-11-28T09:56:25;100193.94;;;6.48;100.00
38812;BME280;24553;51.640;-0.752;2022-11-28T09:58:52;100192.63;;;6.52;100.00
38812;BME280;24553;51.640;-0.752;2022-11-28T10:01:22;100193.91;;;6.64;100.00
38812;BME280;24553;51.640;-0.752;2022-11-28T10:03:58;100202.09;;;6.69;100.00
38812;BME280;24553;51.640;-0.752;2022-11-28T10:06:30;100205.03;;;6.74;100.00
38812;BME280;24553;51.640;-0.752;2022-11-28T10:19:37;100204.38;;;7.04;100.00
38812;BME280;24553;51.640;-0.752;2022-11-28T10:22:05;100201.88;;;7.10;100.00
38812;BME280;24553;51.640;-0.752;2022-11-28T10:24:38;100202.16;;;7.15;100.00
38812;BME280;24553;51.640;-0.752;2022-11-28T10:27:05;100200.66;;;7.21;100.00
38812;BME280;24553;51.640;-0.752;2022-11-28T10:29:49;100199.75;;;7.29;100.00
38812;BME280;24553;51.640;-0.752;2022-11-28T10:32:19;100203.16;;;7.37;100.00
38812;BME280;24553;51.640;-0.752;2022-11-28T10:34:57;100205.72;;;7.46;100.00
38812;BME280;24553;51.640;-0.752;2022-11-28T10:37:25;100200.41;;;7.54;100.00
38812;BME280;24553;51.640;-0.752;2022-11-28T10:39:50;100206.94;;;7.58;100.00
38812;BME280;24553;51.640;-0.752;2022-11-28T10:50:14;100230.44;;;7.68;100.00
38812;BME280;24553;51.640;-0.752;2022-11-28T10:52:44;100241.19;;;7.66;100.00
38812;BME280;24553;51.640;-0.752;2022-11-28T11:00:17;100247.44;;;7.88;100.00
38812;BME280;24553;51.640;-0.752;2022-11-28T11:02:44;100247.50;;;7.95;100.00
38812;BME280;24553;51.640;-0.752;2022-11-28T11:05:11;100248.25;;;7.89;100.00
38812;BME280;24553;51.640;-0.752;2022-11-28T11:07:37;100233.66;;;7.78;100.00
38812;BME280;24553;51.640;-0.752;2022-11-28T11:10:19;100249.78;;;7.83;100.00
38812;BME280;24553;51.640;-0.752;2022-11-28T11:12:45;100242.44;;;7.93;100.00
38812;BME280;24553;51.640;-0.752;2022-11-28T11:15:34;100255.19;;;8.04;100.00
38812;BME280;24553;51.640;-0.752;2022-11-28T11:18:02;100246.28;;;8.20;100.00
38812;BME280;24553;51.640;-0.752;2022-11-28T11:20:32;100257.94;;;8.26;100.00
38812;BME280;24553;51.640;-0.752;2022-11-28T11:22:59;100245.84;;;8.32;100.00
38812;BME280;24553;51.640;-0.752;2022-11-28T11:25:28;100254.53;;;8.40;100.00
38812;BME280;24553;51.640;-0.752;2022-11-28T11:27:58;100254.44;;;8.48;100.00
38812;BME280;24553;51.640;-0.752;2022-11-28T11:30:29;100247.03;;;8.59;100.00
38812;BME280;24553;51.640;-0.752;2022-11-28T11:32:56;100250.88;;;8.71;100.00
38812;BME280;24553;51.640;-0.752;2022-11-28T11:35:23;100243.63;;;8.80;100.00
38812;BME280;24553;51.640;-0.752;2022-11-28T11:37:50;100238.88;;;8.90;100.00
38812;BME280;24553;51.640;-0.752;2022-11-28T11:42:52;100241.13;;;9.08;100.00
38812;BME280;24553;51.640;-0.752;2022-11-28T11:45:27;100241.00;;;9.16;100.00
38812;BME280;24553;51.640;-0.752;2022-11-28T11:47:53;100234.41;;;9.27;100.00
38812;BME280;24553;51.640;-0.752;2022-11-28T11:50:20;100229.72;;;9.29;100.00
38812;BME280;24553;51.640;-0.752;2022-11-28T11:52:59;100225.03;;;9.46;100.00
38812;BME280;24553;51.640;-0.752;2022-11-28T11:55:25;100224.97;;;9.60;100.00
38812;BME280;24553;51.640;-0.752;2022-11-28T11:57:52;100218.50;;;9.70;100.00
38812;BME280;24553;51.640;-0.752;2022-11-28T12:00:20;100202.63;;;9.70;100.00
38812;BME280;24553;51.640;-0.752;2022-11-28T12:02:48;100187.50;;;9.64;100.00
38812;BME280;24553;51.640;-0.752;2022-11-28T12:05:15;100187.03;;;9.53;100.00
38812;BME280;24553;51.640;-0.752;2022-11-28T12:07:49;100177.06;;;9.34;100.00
38812;BME280;24553;51.640;-0.752;2022-11-28T12:10:20;100168.97;;;9.14;100.00
38812;BME280;24553;51.640;-0.752;2022-11-28T12:12:46;100165.50;;;8.92;100.00
38812;BME280;24553;51.640;-0.752;2022-11-28T12:15:14;100158.50;;;8.84;100.00
38812;BME280;24553;51.640;-0.752;2022-11-28T12:25:30;100163.22;;;8.52;100.00
38812;BME280;24553;51.640;-0.752;2022-11-28T12:35:53;100161.22;;;8.55;100.00
38812;BME280;24553;51.640;-0.752;2022-11-28T12:49:07;100184.25;;;8.61;100.00
38812;BME280;24553;51.640;-0.752;2022-11-28T13:20:30;100187.91;;;8.96;100.00
38812;BME280;24553;51.640;-0.752;2022-11-28T13:23:01;100195.91;;;9.03;100.00
38812;BME280;24553;51.640;-0.752;2022-11-28T13:25:50;100185.56;;;9.08;100.00
38812;BME280;24553;51.640;-0.752;2022-11-28T13:30:55;100187.50;;;9.14;100.00
38812;BME280;24553;51.640;-0.752;2022-11-28T13:35:56;100186.72;;;9.20;100.00
38812;BME280;24553;51.640;-0.752;2022-11-28T13:38:29;100192.09;;;9.27;100.00
38812;BME280;24553;51.640;-0.752;2022-11-28T13:41:03;100196.78;;;9.31;100.00
38812;BME280;24553;51.640;-0.752;2022-11-28T13:43:41;100187.22;;;9.30;100.00
38812;BME280;24553;51.640;-0.752;2022-11-28T13:46:11;100187.66;;;9.34;100.00
38812;BME280;24553;51.640;-0.752;2022-11-28T13:51:14;100189.03;;;9.51;100.00
38812;BME280;24553;51.640;-0.752;2022-11-28T13:53:41;100182.53;;;9.54;100.00
38812;BME280;24553;51.640;-0.752;2022-11-28T13:58:33;100192.09;;;9.76;100.00
38812;BME280;24553;51.640;-0.752;2022-11-28T14:01:15;100194.19;;;9.88;100.00
38812;BME280;24553;51.640;-0.752;2022-11-28T14:03:43;100185.25;;;9.89;100.00
38812;BME280;24553;51.640;-0.752;2022-11-28T14:06:10;100187.69;;;9.90;100.00
38812;BME280;24553;51.640;-0.752;2022-11-28T14:08:37;100190.50;;;9.82;100.00
38812;BME280;24553;51.640;-0.752;2022-11-28T14:13:44;100190.66;;;9.80;100.00
38812;BME280;24553;51.640;-0.752;2022-11-28T14:21:54;100197.63;;;10.16;100.00
38812;BME280;24553;51.640;-0.752;2022-11-28T14:27:11;100193.53;;;10.07;100.00
38812;BME280;24553;51.640;-0.752;2022-11-28T14:29:41;100198.94;;;9.99;100.00
38812;BME280;24553;51.640;-0.752;2022-11-28T14:32:33;100202.44;;;9.99;100.00
38812;BME280;24553;51.640;-0.752;2022-11-28T14:34:57;100194.03;;;9.96;100.00
38812;BME280;24553;51.640;-0.752;2022-11-28T14:37:33;100192.19;;;9.96;100.00
38812;BME280;24553;51.640;-0.752;2022-11-28T14:39:59;100196.69;;;9.96;100.00
38812;BME280;24553;51.640;-0.752;2022-11-28T14:47:34;100185.19;;;9.82;100.00
38812;BME280;24553;51.640;-0.752;2022-11-28T14:52:28;100176.44;;;9.81;100.00
38812;BME280;24553;51.640;-0.752;2022-11-28T14:54:54;100187.28;;;9.87;100.00
38812;BME280;24553;51.640;-0.752;2022-11-28T14:57:24;100179.25;;;9.73;100.00
38812;BME280;24553;51.640;-0.752;2022-11-28T14:59:49;100181.00;;;9.66;100.00
38812;BME280;24553;51.640;-0.752;2022-11-28T15:02:18;100183.84;;;9.65;100.00
38812;BME280;24553;51.640;-0.752;2022-11-28T15:05:01;100187.03;;;9.53;100.00
38812;BME280;24553;51.640;-0.752;2022-11-28T15:07:41;100193.50;;;9.51;100.00
38812;BME280;24553;51.640;-0.752;2022-11-28T15:12:45;100206.78;;;9.57;100.00
38812;BME280;24553;51.640;-0.752;2022-11-28T15:15:16;100211.47;;;9.55;100.00
38812;BME280;24553;51.640;-0.752;2022-11-28T15:17:43;100217.75;;;9.54;100.00
38812;BME280;24553;51.640;-0.752;2022-11-28T15:20:16;100225.28;;;9.51;100.00
38812;BME280;24553;51.640;-0.752;2022-11-28T15:22:44;100216.88;;;9.47;100.00
38812;BME280;24553;51.640;-0.752;2022-11-28T15:27:41;100226.00;;;9.45;100.00
38812;BME280;24553;51.640;-0.752;2022-11-28T15:30:13;100230.09;;;9.47;100.00
38812;BME280;24553;51.640;-0.752;2022-11-28T15:32:39;100230.31;;;9.46;100.00
38812;BME280;24553;51.640;-0.752;2022-11-28T15:35:05;100232.31;;;9.44;100.00